Terminal Aerodrome Forecast
Issued by NWS

Home | Current Version | Previous Version | Graphics & Text | Print | Product List | Glossary On
Versions: 1 2 3 4 5 6 7 8 9 10 11 12 13 14 15 16 17 18 19 20 21 22 23 24 25 26 27 28 29
000
FTUS43 KLOT 180908 AAA
TAFGYY
TAF AMD
KGYY 180908Z 1809/1906 26009KT 3SM BR OVC006
      TEMPO 1809/1812 2SM BR OVC004
     FM181500 24010KT 6SM BR SCT004 OVC006
     FM181800 22012KT P6SM SCT020
     FM182100 22012G17KT P6SM SCT150
     FM190000 21007KT P6SM FEW200=

USA.gov is the U.S. government's official web portal to all federal, state and local government web resources and services.